sensor_id;sensor_type;location;lat;lon;timestamp;pressure;altitude;pressure_sealevel;temperature;humidity
45345;BME280;31078;48.304;11.896;2023-04-28T00:01:49;96279.66;;;8.79;74.79
45345;BME280;31078;48.304;11.896;2023-04-28T00:04:16;96267.19;;;8.78;74.84
45345;BME280;31078;48.304;11.896;2023-04-28T00:06:42;96270.72;;;8.78;74.84
45345;BME280;31078;48.304;11.896;2023-04-28T00:09:08;96266.56;;;8.81;74.51
45345;BME280;31078;48.304;11.896;2023-04-28T00:11:36;96267.19;;;8.78;74.77
45345;BME280;31078;48.304;11.896;2023-04-28T00:14:02;96264.78;;;8.76;75.10
45345;BME280;31078;48.304;11.896;2023-04-28T00:16:29;96256.16;;;8.74;75.22
45345;BME280;31078;48.304;11.896;2023-04-28T00:18:57;96259.19;;;8.73;74.70
45345;BME280;31078;48.304;11.896;2023-04-28T00:21:23;96254.34;;;8.70;75.13
45345;BME280;31078;48.304;11.896;2023-04-28T00:23:50;96255.78;;;8.67;75.12
45345;BME280;31078;48.304;11.896;2023-04-28T00:26:16;96242.50;;;8.66;74.47
45345;BME280;31078;48.304;11.896;2023-04-28T00:28:43;96242.63;;;8.60;74.97
45345;BME280;31078;48.304;11.896;2023-04-28T00:31:12;96248.56;;;8.62;74.82
45345;BME280;31078;48.304;11.896;2023-04-28T00:33:38;96242.50;;;8.66;74.58
45345;BME280;31078;48.304;11.896;2023-04-28T00:36:07;96245.22;;;8.66;74.60
45345;BME280;31078;48.304;11.896;2023-04-28T00:38:34;96241.53;;;8.61;74.38
45345;BME280;31078;48.304;11.896;2023-04-28T00:41:01;96236.09;;;8.61;74.67
45345;BME280;31078;48.304;11.896;2023-04-28T00:43:28;96234.69;;;8.64;74.75
45345;BME280;31078;48.304;11.896;2023-04-28T00:45:54;96238.69;;;8.67;74.96
45345;BME280;31078;48.304;11.896;2023-04-28T00:48:21;96235.66;;;8.68;74.81
45345;BME280;31078;48.304;11.896;2023-04-28T00:50:48;96234.22;;;8.71;74.59
45345;BME280;31078;48.304;11.896;2023-04-28T00:53:16;96235.34;;;8.70;74.36
45345;BME280;31078;48.304;11.896;2023-04-28T00:55:42;96235.84;;;8.72;74.31
45345;BME280;31078;48.304;11.896;2023-04-28T00:58:09;96233.63;;;8.74;74.28
45345;BME280;31078;48.304;11.896;2023-04-28T01:00:35;96224.97;;;8.72;74.53
45345;BME280;31078;48.304;11.896;2023-04-28T01:03:02;96221.28;;;8.68;74.38
45345;BME280;31078;48.304;11.896;2023-04-28T01:05:29;96226.09;;;8.71;74.39
45345;BME280;31078;48.304;11.896;2023-04-28T01:07:56;96215.34;;;8.66;74.67
45345;BME280;31078;48.304;11.896;2023-04-28T01:10:23;96214.56;;;8.65;74.13
45345;BME280;31078;48.304;11.896;2023-04-28T01:12:50;96216.97;;;8.67;74.47
45345;BME280;31078;48.304;11.896;2023-04-28T01:15:18;96211.72;;;8.70;74.64
45345;BME280;31078;48.304;11.896;2023-04-28T01:17:46;96211.28;;;8.77;75.13
45345;BME280;31078;48.304;11.896;2023-04-28T01:20:13;96208.06;;;8.75;74.80
45345;BME280;31078;48.304;11.896;2023-04-28T01:22:39;96206.69;;;8.77;74.52
45345;BME280;31078;48.304;11.896;2023-04-28T01:25:08;96198.69;;;8.81;74.28
45345;BME280;31078;48.304;11.896;2023-04-28T01:27:34;96207.03;;;8.84;74.50
45345;BME280;31078;48.304;11.896;2023-04-28T01:30:01;96208.31;;;8.87;74.63
45345;BME280;31078;48.304;11.896;2023-04-28T01:32:27;96206.56;;;8.91;75.12
45345;BME280;31078;48.304;11.896;2023-04-28T01:34:53;96213.59;;;8.92;74.90
45345;BME280;31078;48.304;11.896;2023-04-28T01:37:20;96206.56;;;8.91;75.30
45345;BME280;31078;48.304;11.896;2023-04-28T01:39:46;96194.13;;;8.90;75.27
45345;BME280;31078;48.304;11.896;2023-04-28T01:42:14;96198.09;;;8.84;75.04
45345;BME280;31078;48.304;11.896;2023-04-28T01:44:41;96196.16;;;8.84;75.27
45345;BME280;31078;48.304;11.896;2023-04-28T01:47:07;96190.38;;;8.77;75.00
45345;BME280;31078;48.304;11.896;2023-04-28T01:49:33;96198.81;;;8.76;75.32
45345;BME280;31078;48.304;11.896;2023-04-28T01:52:00;96195.50;;;8.79;75.39
45345;BME280;31078;48.304;11.896;2023-04-28T01:54:26;96195.97;;;8.81;75.56
45345;BME280;31078;48.304;11.896;2023-04-28T01:56:53;96198.09;;;8.84;75.38
45345;BME280;31078;48.304;11.896;2023-04-28T01:59:21;96212.47;;;8.84;75.00
45345;BME280;31078;48.304;11.896;2023-04-28T02:01:48;96209.44;;;8.86;75.71
45345;BME280;31078;48.304;11.896;2023-04-28T02:04:14;96215.84;;;8.90;75.50
45345;BME280;31078;48.304;11.896;2023-04-28T02:06:41;96212.66;;;8.88;75.30
45345;BME280;31078;48.304;11.896;2023-04-28T02:09:08;96209.28;;;8.91;75.38
45345;BME280;31078;48.304;11.896;2023-04-28T02:11:34;96216.97;;;8.89;75.33
45345;BME280;31078;48.304;11.896;2023-04-28T02:14:01;96219.03;;;8.92;75.70
45345;BME280;31078;48.304;11.896;2023-04-28T02:16:29;96211.41;;;8.94;75.64
45345;BME280;31078;48.304;11.896;2023-04-28T02:18:55;96207.56;;;8.95;75.64
45345;BME280;31078;48.304;11.896;2023-04-28T02:21:21;96206.91;;;8.89;75.48
45345;BME280;31078;48.304;11.896;2023-04-28T02:23:48;96201.16;;;8.91;75.58
45345;BME280;31078;48.304;11.896;2023-04-28T02:26:15;96196.34;;;8.88;75.83
45345;BME280;31078;48.304;11.896;2023-04-28T02:28:41;96193.94;;;8.86;75.16
45345;BME280;31078;48.304;11.896;2023-04-28T02:31:09;96195.56;;;8.87;75.17
45345;BME280;31078;48.304;11.896;2023-04-28T02:33:39;96190.28;;;8.91;75.45
45345;BME280;31078;48.304;11.896;2023-04-28T02:36:07;96195.91;;;8.95;76.04
45345;BME280;31078;48.304;11.896;2023-04-28T02:38:34;96186.31;;;8.97;76.48
45345;BME280;31078;48.304;11.896;2023-04-28T02:41:04;96183.13;;;8.95;76.97
45345;BME280;31078;48.304;11.896;2023-04-28T02:43:31;96183.88;;;8.87;76.51
45345;BME280;31078;48.304;11.896;2023-04-28T02:45:58;96182.53;;;8.76;75.84
45345;BME280;31078;48.304;11.896;2023-04-28T02:48:25;96184.13;;;8.77;75.87
45345;BME280;31078;48.304;11.896;2023-04-28T02:50:53;96182.31;;;8.63;76.08
45345;BME280;31078;48.304;11.896;2023-04-28T02:53:20;96179.94;;;8.71;75.81
45345;BME280;31078;48.304;11.896;2023-04-28T02:55:47;96175.31;;;8.71;75.87
45345;BME280;31078;48.304;11.896;2023-04-28T02:58:14;96180.13;;;8.74;76.23
45345;BME280;31078;48.304;11.896;2023-04-28T03:00:42;96180.94;;;8.75;76.37
45345;BME280;31078;48.304;11.896;2023-04-28T03:03:08;96173.91;;;8.74;76.36
45345;BME280;31078;48.304;11.896;2023-04-28T03:05:35;96183.16;;;8.73;76.48
45345;BME280;31078;48.304;11.896;2023-04-28T03:08:03;96179.78;;;8.67;76.43
45345;BME280;31078;48.304;11.896;2023-04-28T03:10:30;96179.59;;;8.63;76.94
45345;BME280;31078;48.304;11.896;2023-04-28T03:12:56;96178.34;;;8.70;77.09
45345;BME280;31078;48.304;11.896;2023-04-28T03:15:22;96177.09;;;8.76;78.01
45345;BME280;31078;48.304;11.896;2023-04-28T03:17:49;96181.59;;;8.80;77.52
45345;BME280;31078;48.304;11.896;2023-04-28T03:20:16;96173.66;;;8.84;77.78
45345;BME280;31078;48.304;11.896;2023-04-28T03:22:42;96165.38;;;8.89;78.43
45345;BME280;31078;48.304;11.896;2023-04-28T03:25:10;96167.75;;;8.91;78.71
45345;BME280;31078;48.304;11.896;2023-04-28T03:27:36;96160.53;;;8.86;78.58
45345;BME280;31078;48.304;11.896;2023-04-28T03:30:04;96157.34;;;8.84;78.47
45345;BME280;31078;48.304;11.896;2023-04-28T03:32:31;96147.09;;;8.81;78.37
45345;BME280;31078;48.304;11.896;2023-04-28T03:34:57;96154.78;;;8.79;78.31
45345;BME280;31078;48.304;11.896;2023-04-28T03:37:24;96147.09;;;8.81;78.16
45345;BME280;31078;48.304;11.896;2023-04-28T03:39:51;96148.09;;;8.85;79.12
45345;BME280;31078;48.304;11.896;2023-04-28T03:42:19;96147.59;;;8.83;79.30
45345;BME280;31078;48.304;11.896;2023-04-28T03:44:46;96147.59;;;8.83;79.46
45345;BME280;31078;48.304;11.896;2023-04-28T03:47:12;96150.47;;;8.86;80.05
45345;BME280;31078;48.304;11.896;2023-04-28T03:49:39;96153.72;;;8.88;79.83
45345;BME280;31078;48.304;11.896;2023-04-28T03:52:05;96146.34;;;8.89;80.08
45345;BME280;31078;48.304;11.896;2023-04-28T03:54:32;96149.69;;;8.86;80.71
45345;BME280;31078;48.304;11.896;2023-04-28T03:56:58;96159.22;;;8.75;81.35
45345;BME280;31078;48.304;11.896;2023-04-28T03:59:27;96160.47;;;8.69;81.49
45345;BME280;31078;48.304;11.896;2023-04-28T04:01:54;96164.91;;;8.65;82.63
45345;BME280;31078;48.304;11.896;2023-04-28T04:04:20;96181.19;;;8.65;83.37
45345;BME280;31078;48.304;11.896;2023-04-28T04:06:47;96187.09;;;8.44;85.20
45345;BME280;31078;48.304;11.896;2023-04-28T04:09:13;96170.66;;;8.41;85.57
45345;BME280;31078;48.304;11.896;2023-04-28T04:11:40;96171.66;;;8.31;86.39
45345;BME280;31078;48.304;11.896;2023-04-28T04:14:06;96171.28;;;8.24;86.50
45345;BME280;31078;48.304;11.896;2023-04-28T04:16:35;96177.69;;;8.28;87.50
45345;BME280;31078;48.304;11.896;2023-04-28T04:19:02;96192.09;;;7.78;89.91
45345;BME280;31078;48.304;11.896;2023-04-28T04:21:29;96192.72;;;7.48;93.38
45345;BME280;31078;48.304;11.896;2023-04-28T04:23:55;96175.97;;;7.32;96.60
45345;BME280;31078;48.304;11.896;2023-04-28T04:26:22;96167.34;;;7.30;99.07
45345;BME280;31078;48.304;11.896;2023-04-28T04:28:49;96173.56;;;7.44;98.52
45345;BME280;31078;48.304;11.896;2023-04-28T04:31:15;96175.25;;;7.54;97.94
45345;BME280;31078;48.304;11.896;2023-04-28T04:33:44;96164.81;;;7.61;97.94
45345;BME280;31078;48.304;11.896;2023-04-28T04:36:11;96170.31;;;7.70;98.83
45345;BME280;31078;48.304;11.896;2023-04-28T04:38:38;96168.63;;;7.74;99.02
45345;BME280;31078;48.304;11.896;2023-04-28T04:41:05;96156.56;;;7.80;99.99
45345;BME280;31078;48.304;11.896;2023-04-28T04:43:32;96160.88;;;7.81;100.00
45345;BME280;31078;48.304;11.896;2023-04-28T04:45:58;96160.38;;;7.79;100.00
45345;BME280;31078;48.304;11.896;2023-04-28T04:48:25;96161.88;;;7.85;100.00
45345;BME280;31078;48.304;11.896;2023-04-28T04:50:54;96155.69;;;7.93;100.00
45345;BME280;31078;48.304;11.896;2023-04-28T04:53:26;96151.47;;;8.01;100.00
45345;BME280;31078;48.304;11.896;2023-04-28T04:55:53;96146.53;;;8.03;100.00
45345;BME280;31078;48.304;11.896;2023-04-28T04:58:19;96156.97;;;8.09;100.00
45345;BME280;31078;48.304;11.896;2023-04-28T05:00:46;96143.78;;;8.17;100.00
45345;BME280;31078;48.304;11.896;2023-04-28T05:03:13;96145.91;;;8.20;100.00
45345;BME280;31078;48.304;11.896;2023-04-28T05:05:39;96141.16;;;8.25;100.00
45345;BME280;31078;48.304;11.896;2023-04-28T05:08:07;96121.66;;;8.23;100.00
45345;BME280;31078;48.304;11.896;2023-04-28T05:10:34;96119.44;;;8.25;100.00
45345;BME280;31078;48.304;11.896;2023-04-28T05:13:01;96124.25;;;8.28;100.00
45345;BME280;31078;48.304;11.896;2023-04-28T05:15:27;96116.63;;;8.30;100.00
45345;BME280;31078;48.304;11.896;2023-04-28T05:17:54;96116.28;;;8.32;100.00
45345;BME280;31078;48.304;11.896;2023-04-28T05:20:21;96115.19;;;8.33;100.00
45345;BME280;31078;48.304;11.896;2023-04-28T05:22:48;96122.91;;;8.40;100.00
45345;BME280;31078;48.304;11.896;2023-04-28T05:25:16;96122.09;;;8.39;100.00
45345;BME280;31078;48.304;11.896;2023-04-28T05:27:43;96119.94;;;8.50;100.00
45345;BME280;31078;48.304;11.896;2023-04-28T05:30:10;96119.53;;;8.56;100.00
45345;BME280;31078;48.304;11.896;2023-04-28T05:32:36;96125.56;;;8.53;100.00
45345;BME280;31078;48.304;11.896;2023-04-28T05:35:03;96130.53;;;8.60;100.00
45345;BME280;31078;48.304;11.896;2023-04-28T05:37:30;96131.34;;;8.60;100.00
45345;BME280;31078;48.304;11.896;2023-04-28T05:39:57;96124.50;;;8.63;100.00
45345;BME280;31078;48.304;11.896;2023-04-28T05:42:24;96126.91;;;8.65;100.00
45345;BME280;31078;48.304;11.896;2023-04-28T05:44:51;96126.41;;;8.62;100.00
45345;BME280;31078;48.304;11.896;2023-04-28T05:47:18;96124.31;;;8.59;100.00
45345;BME280;31078;48.304;11.896;2023-04-28T05:49:44;96124.69;;;8.67;100.00
45345;BME280;31078;48.304;11.896;2023-04-28T05:52:11;96132.84;;;8.67;100.00
45345;BME280;31078;48.304;11.896;2023-04-28T05:54:37;96132.31;;;8.65;100.00
45345;BME280;31078;48.304;11.896;2023-04-28T05:57:04;96135.16;;;8.59;100.00
45345;BME280;31078;48.304;11.896;2023-04-28T05:59:31;96132.13;;;8.61;100.00
45345;BME280;31078;48.304;11.896;2023-04-28T06:01:58;96125.31;;;8.63;100.00
45345;BME280;31078;48.304;11.896;2023-04-28T06:04:25;96121.47;;;8.65;100.00
45345;BME280;31078;48.304;11.896;2023-04-28T06:06:51;96124.69;;;8.67;100.00
45345;BME280;31078;48.304;11.896;2023-04-28T06:09:18;96120.84;;;8.68;100.00
45345;BME280;31078;48.304;11.896;2023-04-28T06:11:44;96120.22;;;8.71;100.00
45345;BME280;31078;48.304;11.896;2023-04-28T06:14:11;96122.47;;;8.69;100.00
45345;BME280;31078;48.304;11.896;2023-04-28T06:16:39;96124.44;;;8.54;100.00
45345;BME280;31078;48.304;11.896;2023-04-28T06:19:05;96119.53;;;8.56;100.00
45345;BME280;31078;48.304;11.896;2023-04-28T06:21:32;96121.53;;;8.51;100.00
45345;BME280;31078;48.304;11.896;2023-04-28T06:23:58;96121.38;;;8.47;100.00
45345;BME280;31078;48.304;11.896;2023-04-28T06:26:26;96117.34;;;8.45;100.00
45345;BME280;31078;48.304;11.896;2023-04-28T06:28:52;96118.22;;;8.54;100.00
45345;BME280;31078;48.304;11.896;2023-04-28T06:31:19;96121.78;;;8.63;100.00
45345;BME280;31078;48.304;11.896;2023-04-28T06:33:46;96122.72;;;8.58;100.00
45345;BME280;31078;48.304;11.896;2023-04-28T06:36:13;96136.16;;;8.63;100.00
45345;BME280;31078;48.304;11.896;2023-04-28T06:38:42;96154.53;;;8.44;100.00
45345;BME280;31078;48.304;11.896;2023-04-28T06:41:08;96167.84;;;8.32;100.00
45345;BME280;31078;48.304;11.896;2023-04-28T06:43:35;96179.72;;;8.36;100.00
45345;BME280;31078;48.304;11.896;2023-04-28T06:46:01;96169.22;;;8.43;100.00
45345;BME280;31078;48.304;11.896;2023-04-28T06:48:28;96156.34;;;8.49;100.00
45345;BME280;31078;48.304;11.896;2023-04-28T06:50:56;96145.03;;;8.55;100.00
45345;BME280;31078;48.304;11.896;2023-04-28T06:53:22;96143.38;;;8.68;100.00
45345;BME280;31078;48.304;11.896;2023-04-28T06:55:49;96136.09;;;8.77;100.00
45345;BME280;31078;48.304;11.896;2023-04-28T06:58:15;96126.97;;;8.82;100.00
45345;BME280;31078;48.304;11.896;2023-04-28T07:00:42;96132.78;;;8.89;100.00
45345;BME280;31078;48.304;11.896;2023-04-28T07:03:08;96134.97;;;8.78;100.00
45345;BME280;31078;48.304;11.896;2023-04-28T07:05:35;96143.78;;;8.84;100.00
45345;BME280;31078;48.304;11.896;2023-04-28T07:08:03;96144.25;;;8.86;100.00
45345;BME280;31078;48.304;11.896;2023-04-28T07:10:30;96144.38;;;8.81;100.00
45345;BME280;31078;48.304;11.896;2023-04-28T07:12:57;96148.69;;;8.82;100.00
45345;BME280;31078;48.304;11.896;2023-04-28T07:15:24;96147.75;;;8.78;100.00
45345;BME280;31078;48.304;11.896;2023-04-28T07:17:51;96142.03;;;8.88;100.00
45345;BME280;31078;48.304;11.896;2023-04-28T07:20:17;96144.63;;;8.93;100.00
45345;BME280;31078;48.304;11.896;2023-04-28T07:22:44;96149.41;;;8.96;100.00
45345;BME280;31078;48.304;11.896;2023-04-28T07:25:12;96149.41;;;8.96;100.00
45345;BME280;31078;48.304;11.896;2023-04-28T07:27:38;96148.44;;;8.92;100.00
45345;BME280;31078;48.304;11.896;2023-04-28T07:30:06;96144.50;;;8.98;100.00
45345;BME280;31078;48.304;11.896;2023-04-28T07:32:33;96145.78;;;9.01;100.00
45345;BME280;31078;48.304;11.896;2023-04-28T07:34:59;96142.47;;;9.12;100.00
45345;BME280;31078;48.304;11.896;2023-04-28T07:37:26;96139.78;;;9.21;100.00
45345;BME280;31078;48.304;11.896;2023-04-28T07:39:52;96141.69;;;9.21;100.00
45345;BME280;31078;48.304;11.896;2023-04-28T07:42:20;96143.81;;;9.32;100.00
45345;BME280;31078;48.304;11.896;2023-04-28T07:44:46;96148.31;;;9.37;100.00
45345;BME280;31078;48.304;11.896;2023-04-28T07:47:13;96144.13;;;9.31;100.00
45345;BME280;31078;48.304;11.896;2023-04-28T07:49:40;96153.13;;;9.40;100.00
45345;BME280;31078;48.304;11.896;2023-04-28T07:52:06;96164.81;;;9.49;100.00
45345;BME280;31078;48.304;11.896;2023-04-28T07:54:34;96160.03;;;9.55;100.00
45345;BME280;31078;48.304;11.896;2023-04-28T07:57:00;96157.94;;;9.60;100.00
45345;BME280;31078;48.304;11.896;2023-04-28T07:59:31;96165.00;;;9.61;100.00
45345;BME280;31078;48.304;11.896;2023-04-28T08:01:58;96157.00;;;9.56;100.00
45345;BME280;31078;48.304;11.896;2023-04-28T08:04:24;96159.59;;;9.61;100.00
45345;BME280;31078;48.304;11.896;2023-04-28T08:06:51;96154.28;;;9.65;100.00
45345;BME280;31078;48.304;11.896;2023-04-28T08:09:18;96155.09;;;9.65;100.00
45345;BME280;31078;48.304;11.896;2023-04-28T08:11:45;96150.63;;;9.70;100.00
45345;BME280;31078;48.304;11.896;2023-04-28T08:14:11;96138.31;;;9.81;100.00
45345;BME280;31078;48.304;11.896;2023-04-28T08:16:39;96137.22;;;9.90;100.00
45345;BME280;31078;48.304;11.896;2023-04-28T08:19:06;96130.66;;;10.00;100.00
45345;BME280;31078;48.304;11.896;2023-04-28T08:21:33;96133.69;;;10.07;100.00
45345;BME280;31078;48.304;11.896;2023-04-28T08:23:59;96121.84;;;10.12;100.00
45345;BME280;31078;48.304;11.896;2023-04-28T08:26:26;96107.00;;;10.09;100.00
45345;BME280;31078;48.304;11.896;2023-04-28T08:28:52;96114.66;;;10.07;100.00
45345;BME280;31078;48.304;11.896;2023-04-28T08:31:19;96109.72;;;10.09;100.00
45345;BME280;31078;48.304;11.896;2023-04-28T08:33:47;96107.47;;;10.11;100.00
45345;BME280;31078;48.304;11.896;2023-04-28T08:36:15;96107.63;;;10.15;100.00
45345;BME280;31078;48.304;11.896;2023-04-28T08:38:42;96107.94;;;10.22;100.00
45345;BME280;31078;48.304;11.896;2023-04-28T08:41:09;96096.78;;;10.24;100.00
45345;BME280;31078;48.304;11.896;2023-04-28T08:43:36;96097.84;;;10.23;100.00
45345;BME280;31078;48.304;11.896;2023-04-28T08:46:05;96102.06;;;10.29;100.00
45345;BME280;31078;48.304;11.896;2023-04-28T08:48:38;96104.63;;;10.34;100.00
45345;BME280;31078;48.304;11.896;2023-04-28T08:51:07;96103.94;;;10.37;100.00
45345;BME280;31078;48.304;11.896;2023-04-28T08:53:36;96100.09;;;10.38;100.00
45345;BME280;31078;48.304;11.896;2023-04-28T08:56:05;96100.09;;;10.38;100.00
45345;BME280;31078;48.304;11.896;2023-04-28T08:58:34;96094.34;;;10.31;100.00
45345;BME280;31078;48.304;11.896;2023-04-28T09:01:02;96083.59;;;10.43;100.00
45345;BME280;31078;48.304;11.896;2023-04-28T09:03:29;96081.53;;;10.40;100.00
45345;BME280;31078;48.304;11.896;2023-04-28T09:05:57;96077.84;;;10.44;100.00
45345;BME280;31078;48.304;11.896;2023-04-28T09:08:25;96078.00;;;10.48;100.00
45345;BME280;31078;48.304;11.896;2023-04-28T09:11:05;96077.97;;;10.57;100.00
45345;BME280;31078;48.304;11.896;2023-04-28T09:13:33;96076.34;;;10.64;100.00
45345;BME280;31078;48.304;11.896;2023-04-28T09:16:00;96078.44;;;10.67;100.00
45345;BME280;31078;48.304;11.896;2023-04-28T09:18:28;96077.66;;;10.58;100.00
45345;BME280;31078;48.304;11.896;2023-04-28T09:21:02;96072.88;;;10.38;100.00
45345;BME280;31078;48.304;11.896;2023-04-28T09:23:31;96066.63;;;10.37;100.00
45345;BME280;31078;48.304;11.896;2023-04-28T09:26:00;96071.63;;;10.44;100.00
45345;BME280;31078;48.304;11.896;2023-04-28T09:28:27;96067.09;;;10.48;100.00
45345;BME280;31078;48.304;11.896;2023-04-28T09:30:53;96062.94;;;10.42;100.00
45345;BME280;31078;48.304;11.896;2023-04-28T09:33:20;96058.47;;;10.46;100.00
45345;BME280;31078;48.304;11.896;2023-04-28T09:35:47;96057.50;;;10.42;100.00
45345;BME280;31078;48.304;11.896;2023-04-28T09:38:13;96053.81;;;10.55;100.00
45345;BME280;31078;48.304;11.896;2023-04-28T09:40:53;96054.56;;;10.64;100.00
45345;BME280;31078;48.304;11.896;2023-04-28T09:43:27;96055.72;;;10.55;100.00
45345;BME280;31078;48.304;11.896;2023-04-28T09:45:54;96054.56;;;10.64;100.00
45345;BME280;31078;48.304;11.896;2023-04-28T09:48:28;96049.56;;;10.75;100.00
45345;BME280;31078;48.304;11.896;2023-04-28T09:50:56;96046.53;;;10.77;100.00
45345;BME280;31078;48.304;11.896;2023-04-28T09:53:24;96046.34;;;10.82;100.00
45345;BME280;31078;48.304;11.896;2023-04-28T09:55:53;96048.41;;;10.85;100.00
45345;BME280;31078;48.304;11.896;2023-04-28T09:58:20;96040.72;;;10.87;100.00
45345;BME280;31078;48.304;11.896;2023-04-28T10:00:51;96045.38;;;10.86;100.00
45345;BME280;31078;48.304;11.896;2023-04-28T10:03:20;96045.97;;;10.92;100.00
45345;BME280;31078;48.304;11.896;2023-04-28T10:05:47;96042.81;;;10.81;100.00
45345;BME280;31078;48.304;11.896;2023-04-28T10:08:15;96047.97;;;10.74;100.00
45345;BME280;31078;48.304;11.896;2023-04-28T10:10:44;96042.69;;;10.69;100.00
45345;BME280;31078;48.304;11.896;2023-04-28T10:13:15;96050.72;;;10.65;100.00
45345;BME280;31078;48.304;11.896;2023-04-28T10:15:42;96051.84;;;10.64;100.00
45345;BME280;31078;48.304;11.896;2023-04-28T10:18:10;96063.22;;;10.66;100.00
45345;BME280;31078;48.304;11.896;2023-04-28T10:20:37;96052.97;;;10.63;100.00
45345;BME280;31078;48.304;11.896;2023-04-28T10:23:29;96043.53;;;10.61;100.00
45345;BME280;31078;48.304;11.896;2023-04-28T10:26:02;96047.69;;;10.58;100.00
45345;BME280;31078;48.304;11.896;2023-04-28T10:28:30;96051.09;;;10.55;100.00
45345;BME280;31078;48.304;11.896;2023-04-28T10:31:14;96052.00;;;10.59;100.00
45345;BME280;31078;48.304;11.896;2023-04-28T10:33:42;96053.63;;;10.60;100.00
45345;BME280;31078;48.304;11.896;2023-04-28T10:36:09;96050.72;;;10.65;100.00
45345;BME280;31078;48.304;11.896;2023-04-28T10:39:09;96055.13;;;10.32;100.00
45345;BME280;31078;48.304;11.896;2023-04-28T10:41:36;96054.00;;;10.33;100.00
45345;BME280;31078;48.304;11.896;2023-04-28T10:47:04;96045.53;;;10.26;100.00
45345;BME280;31078;48.304;11.896;2023-04-28T10:50:03;96037.19;;;10.22;100.00
45345;BME280;31078;48.304;11.896;2023-04-28T10:52:47;96034.94;;;10.33;100.00
45345;BME280;31078;48.304;11.896;2023-04-28T10:55:31;96037.03;;;10.36;100.00
45345;BME280;31078;48.304;11.896;2023-04-28T10:58:31;96034.47;;;10.31;100.00
45345;BME280;31078;48.304;11.896;2023-04-28T11:01:23;96037.66;;;10.33;100.00
45345;BME280;31078;48.304;11.896;2023-04-28T11:03:52;96030.28;;;10.42;100.00
45345;BME280;31078;48.304;11.896;2023-04-28T11:06:25;96037.03;;;10.36;100.00
45345;BME280;31078;48.304;11.896;2023-04-28T11:08:52;96039.94;;;10.31;100.00
45345;BME280;31078;48.304;11.896;2023-04-28T11:11:21;96038.16;;;10.35;100.00
45345;BME280;31078;48.304;11.896;2023-04-28T11:13:50;96042.34;;;10.24;100.00
45345;BME280;31078;48.304;11.896;2023-04-28T11:16:22;96044.41;;;10.27;100.00
45345;BME280;31078;48.304;11.896;2023-04-28T11:18:59;96042.50;;;10.27;100.00
45345;BME280;31078;48.304;11.896;2023-04-28T11:21:29;96046.81;;;10.19;100.00
45345;BME280;31078;48.304;11.896;2023-04-28T11:23:57;96046.47;;;10.21;100.00
45345;BME280;31078;48.304;11.896;2023-04-28T11:26:24;96057.19;;;10.17;100.00
45345;BME280;31078;48.304;11.896;2023-04-28T11:28:52;96048.41;;;10.20;100.00
45345;BME280;31078;48.304;11.896;2023-04-28T11:31:21;96050.81;;;10.31;100.00
45345;BME280;31078;48.304;11.896;2023-04-28T11:33:58;96051.78;;;10.35;100.00
45345;BME280;31078;48.304;11.896;2023-04-28T11:36:27;96047.41;;;10.42;100.00
45345;BME280;31078;48.304;11.896;2023-04-28T11:38:55;96044.22;;;10.40;100.00
45345;BME280;31078;48.304;11.896;2023-04-28T11:41:22;96049.00;;;10.43;100.00
45345;BME280;31078;48.304;11.896;2023-04-28T11:43:49;96048.50;;;10.59;100.00
45345;BME280;31078;48.304;11.896;2023-04-28T11:46:17;96049.47;;;10.54;100.00
45345;BME280;31078;48.304;11.896;2023-04-28T11:48:44;96049.63;;;10.58;100.00
45345;BME280;31078;48.304;11.896;2023-04-28T11:51:33;96040.81;;;10.61;100.00
45345;BME280;31078;48.304;11.896;2023-04-28T11:54:00;96034.53;;;10.69;100.00
45345;BME280;31078;48.304;11.896;2023-04-28T11:56:28;96034.13;;;10.88;100.00
45345;BME280;31078;48.304;11.896;2023-04-28T11:59:02;96032.81;;;10.94;100.00
45345;BME280;31078;48.304;11.896;2023-04-28T12:01:29;96035.78;;;11.10;100.00
45345;BME280;31078;48.304;11.896;2023-04-28T12:03:56;96026.34;;;11.07;100.00
45345;BME280;31078;48.304;11.896;2023-04-28T12:06:22;96027.28;;;11.11;100.00
45345;BME280;31078;48.304;11.896;2023-04-28T12:08:50;96031.31;;;11.05;100.00
45345;BME280;31078;48.304;11.896;2023-04-28T12:11:17;96028.94;;;11.04;100.00
45345;BME280;31078;48.304;11.896;2023-04-28T12:14:02;96026.63;;;11.14;100.00
45345;BME280;31078;48.304;11.896;2023-04-28T12:16:37;96026.16;;;11.12;100.00
45345;BME280;31078;48.304;11.896;2023-04-28T12:19:07;96031.25;;;11.22;100.00
45345;BME280;31078;48.304;11.896;2023-04-28T12:21:35;96027.88;;;11.17;100.00
45345;BME280;31078;48.304;11.896;2023-04-28T12:24:14;96024.38;;;11.16;100.00
45345;BME280;31078;48.304;11.896;2023-04-28T12:26:40;96036.69;;;11.22;100.00
45345;BME280;31078;48.304;11.896;2023-04-28T12:29:07;96036.97;;;11.30;100.00
45345;BME280;31078;48.304;11.896;2023-04-28T12:31:47;96033.09;;;11.31;100.00
45345;BME280;31078;48.304;11.896;2023-04-28T12:34:14;96034.38;;;11.33;100.00
45345;BME280;31078;48.304;11.896;2023-04-28T12:36:41;96040.44;;;11.39;100.00
45345;BME280;31078;48.304;11.896;2023-04-28T12:39:13;96040.91;;;11.41;100.00
45345;BME280;31078;48.304;11.896;2023-04-28T12:41:43;96034.69;;;11.32;100.00
45345;BME280;31078;48.304;11.896;2023-04-28T12:44:09;96036.97;;;11.30;100.00
45345;BME280;31078;48.304;11.896;2023-04-28T12:46:36;96031.50;;;11.30;100.00
45345;BME280;31078;48.304;11.896;2023-04-28T12:49:02;96039.22;;;11.28;100.00
45345;BME280;31078;48.304;11.896;2023-04-28T12:51:29;96038.56;;;11.31;100.00
45345;BME280;31078;48.304;11.896;2023-04-28T12:53:56;96037.31;;;11.49;100.00
45345;BME280;31078;48.304;11.896;2023-04-28T12:56:24;96031.47;;;11.59;100.00
45345;BME280;31078;48.304;11.896;2023-04-28T12:58:51;96029.16;;;11.70;100.00